Terminal Aerodrome Forecast
Issued by NWS

Home | Current Version | Previous Version | Text Only | Print | Product List | Glossary On
Versions: 1 2 3 4 5 6 7 8 9 10 11 12 13
000
FTUS45 KRIW 120500
TAFCPR
TAF
KCPR 120523Z 1206/1306 VRB05KT P6SM VCFG SCT008 BKN025
     FM120900 VRB04KT 4SM BR BKN008
     FM121600 21007KT P6SM SKC
     FM130500 22012KT P6SM SKC=

USA.gov is the U.S. government's official web portal to all federal, state and local government web resources and services.